sensor_id;sensor_type;location;lat;lon;timestamp;P1;durP1;ratioP1;P2;durP2;ratioP2
31724;SDS011;18306;40.960;14.836;2024-03-02T00:00:51;29.17;;;21.55;;
31724;SDS011;18306;40.960;14.836;2024-03-02T00:03:19;22.30;;;16.58;;
31724;SDS011;18306;40.960;14.836;2024-03-02T00:05:50;24.48;;;15.93;;
31724;SDS011;18306;40.960;14.836;2024-03-02T00:08:25;21.52;;;14.85;;
31724;SDS011;18306;40.960;14.836;2024-03-02T00:10:58;22.63;;;15.35;;
31724;SDS011;18306;40.960;14.836;2024-03-02T00:13:30;26.88;;;16.52;;
31724;SDS011;18306;40.960;14.836;2024-03-02T00:16:05;22.58;;;14.90;;
31724;SDS011;18306;40.960;14.836;2024-03-02T00:21:04;20.65;;;14.18;;
31724;SDS011;18306;40.960;14.836;2024-03-02T00:23:38;22.90;;;14.27;;
31724;SDS011;18306;40.960;14.836;2024-03-02T00:26:18;19.85;;;14.35;;
31724;SDS011;18306;40.960;14.836;2024-03-02T00:28:45;21.38;;;14.68;;
31724;SDS011;18306;40.960;14.836;2024-03-02T00:31:13;21.30;;;14.65;;
31724;SDS011;18306;40.960;14.836;2024-03-02T00:33:44;20.65;;;15.25;;
31724;SDS011;18306;40.960;14.836;2024-03-02T00:36:13;19.95;;;15.48;;
31724;SDS011;18306;40.960;14.836;2024-03-02T00:38:49;19.55;;;15.23;;
31724;SDS011;18306;40.960;14.836;2024-03-02T00:41:28;23.25;;;16.27;;
31724;SDS011;18306;40.960;14.836;2024-03-02T00:44:03;24.25;;;15.68;;
31724;SDS011;18306;40.960;14.836;2024-03-02T00:46:36;25.92;;;15.88;;
31724;SDS011;18306;40.960;14.836;2024-03-02T00:49:04;22.63;;;16.13;;
31724;SDS011;18306;40.960;14.836;2024-03-02T00:51:38;21.48;;;14.43;;
31724;SDS011;18306;40.960;14.836;2024-03-02T00:54:07;24.45;;;16.42;;
31724;SDS011;18306;40.960;14.836;2024-03-02T00:56:35;21.85;;;16.27;;
31724;SDS011;18306;40.960;14.836;2024-03-02T00:59:02;24.55;;;17.83;;
31724;SDS011;18306;40.960;14.836;2024-03-02T01:01:29;26.17;;;15.77;;
31724;SDS011;18306;40.960;14.836;2024-03-02T01:03:56;21.40;;;16.20;;
31724;SDS011;18306;40.960;14.836;2024-03-02T01:06:23;22.95;;;16.55;;
31724;SDS011;18306;40.960;14.836;2024-03-02T01:08:50;19.02;;;15.30;;
31724;SDS011;18306;40.960;14.836;2024-03-02T01:11:18;21.20;;;14.15;;
31724;SDS011;18306;40.960;14.836;2024-03-02T01:13:45;21.92;;;14.88;;
31724;SDS011;18306;40.960;14.836;2024-03-02T01:16:15;23.95;;;14.80;;
31724;SDS011;18306;40.960;14.836;2024-03-02T01:18:42;20.15;;;14.73;;
31724;SDS011;18306;40.960;14.836;2024-03-02T01:21:09;20.17;;;14.25;;
31724;SDS011;18306;40.960;14.836;2024-03-02T01:23:36;20.48;;;14.32;;
31724;SDS011;18306;40.960;14.836;2024-03-02T01:26:04;18.02;;;13.07;;
31724;SDS011;18306;40.960;14.836;2024-03-02T01:28:31;18.92;;;14.77;;
31724;SDS011;18306;40.960;14.836;2024-03-02T01:30:58;18.92;;;14.43;;
31724;SDS011;18306;40.960;14.836;2024-03-02T01:33:25;22.30;;;15.65;;
31724;SDS011;18306;40.960;14.836;2024-03-02T01:35:52;26.00;;;15.90;;
31724;SDS011;18306;40.960;14.836;2024-03-02T01:38:19;26.73;;;15.63;;
31724;SDS011;18306;40.960;14.836;2024-03-02T01:40:46;28.77;;;17.88;;
31724;SDS011;18306;40.960;14.836;2024-03-02T01:43:13;22.25;;;15.60;;
31724;SDS011;18306;40.960;14.836;2024-03-02T01:45:40;26.10;;;16.80;;
31724;SDS011;18306;40.960;14.836;2024-03-02T01:48:08;29.85;;;17.00;;
31724;SDS011;18306;40.960;14.836;2024-03-02T01:50:35;26.80;;;17.00;;
31724;SDS011;18306;40.960;14.836;2024-03-02T01:53:03;24.77;;;16.73;;
31724;SDS011;18306;40.960;14.836;2024-03-02T01:55:30;22.98;;;16.40;;
31724;SDS011;18306;40.960;14.836;2024-03-02T01:57:57;22.70;;;16.83;;
31724;SDS011;18306;40.960;14.836;2024-03-02T02:00:24;23.25;;;16.70;;
31724;SDS011;18306;40.960;14.836;2024-03-02T02:02:52;21.52;;;16.20;;
31724;SDS011;18306;40.960;14.836;2024-03-02T02:05:20;21.55;;;15.50;;
31724;SDS011;18306;40.960;14.836;2024-03-02T02:07:47;20.88;;;16.30;;
31724;SDS011;18306;40.960;14.836;2024-03-02T02:10:15;23.40;;;16.85;;
31724;SDS011;18306;40.960;14.836;2024-03-02T02:12:42;25.35;;;17.00;;
31724;SDS011;18306;40.960;14.836;2024-03-02T02:15:25;21.48;;;15.88;;
31724;SDS011;18306;40.960;14.836;2024-03-02T02:17:57;27.10;;;17.60;;
31724;SDS011;18306;40.960;14.836;2024-03-02T02:20:24;27.65;;;16.50;;
31724;SDS011;18306;40.960;14.836;2024-03-02T02:23:10;23.30;;;16.08;;
31724;SDS011;18306;40.960;14.836;2024-03-02T02:25:37;20.58;;;15.98;;
31724;SDS011;18306;40.960;14.836;2024-03-02T02:28:04;24.92;;;16.63;;
31724;SDS011;18306;40.960;14.836;2024-03-02T02:30:31;24.83;;;16.58;;
31724;SDS011;18306;40.960;14.836;2024-03-02T02:32:59;22.80;;;16.40;;
31724;SDS011;18306;40.960;14.836;2024-03-02T02:35:26;19.48;;;16.08;;
31724;SDS011;18306;40.960;14.836;2024-03-02T02:37:54;23.15;;;16.83;;
31724;SDS011;18306;40.960;14.836;2024-03-02T02:40:22;22.02;;;15.35;;
31724;SDS011;18306;40.960;14.836;2024-03-02T02:42:49;22.95;;;16.30;;
31724;SDS011;18306;40.960;14.836;2024-03-02T02:45:18;24.65;;;17.13;;
31724;SDS011;18306;40.960;14.836;2024-03-02T02:47:45;25.80;;;16.95;;
31724;SDS011;18306;40.960;14.836;2024-03-02T02:50:12;19.15;;;16.08;;
31724;SDS011;18306;40.960;14.836;2024-03-02T02:52:40;21.08;;;15.93;;
31724;SDS011;18306;40.960;14.836;2024-03-02T02:55:08;21.13;;;14.75;;
31724;SDS011;18306;40.960;14.836;2024-03-02T02:57:37;23.02;;;16.17;;
31724;SDS011;18306;40.960;14.836;2024-03-02T03:00:06;21.33;;;15.20;;
31724;SDS011;18306;40.960;14.836;2024-03-02T03:02:37;23.77;;;16.27;;
31724;SDS011;18306;40.960;14.836;2024-03-02T03:05:05;27.35;;;19.35;;
31724;SDS011;18306;40.960;14.836;2024-03-02T03:07:32;39.67;;;26.83;;
31724;SDS011;18306;40.960;14.836;2024-03-02T03:10:01;31.27;;;21.27;;
31724;SDS011;18306;40.960;14.836;2024-03-02T03:12:29;31.05;;;20.50;;
31724;SDS011;18306;40.960;14.836;2024-03-02T03:14:59;22.42;;;16.33;;
31724;SDS011;18306;40.960;14.836;2024-03-02T03:17:27;21.13;;;15.50;;
31724;SDS011;18306;40.960;14.836;2024-03-02T03:19:54;22.42;;;15.88;;
31724;SDS011;18306;40.960;14.836;2024-03-02T03:22:22;22.98;;;16.25;;
31724;SDS011;18306;40.960;14.836;2024-03-02T03:24:49;31.92;;;22.17;;
31724;SDS011;18306;40.960;14.836;2024-03-02T03:27:16;28.02;;;21.17;;
31724;SDS011;18306;40.960;14.836;2024-03-02T03:29:43;26.73;;;18.60;;
31724;SDS011;18306;40.960;14.836;2024-03-02T03:32:10;29.15;;;18.80;;
31724;SDS011;18306;40.960;14.836;2024-03-02T03:34:37;24.80;;;18.55;;
31724;SDS011;18306;40.960;14.836;2024-03-02T03:37:04;24.33;;;17.70;;
31724;SDS011;18306;40.960;14.836;2024-03-02T03:39:33;27.40;;;20.60;;
31724;SDS011;18306;40.960;14.836;2024-03-02T03:42:16;27.00;;;20.75;;
31724;SDS011;18306;40.960;14.836;2024-03-02T03:44:43;28.70;;;19.60;;
31724;SDS011;18306;40.960;14.836;2024-03-02T03:47:10;25.17;;;19.92;;
31724;SDS011;18306;40.960;14.836;2024-03-02T03:49:37;22.55;;;18.25;;
31724;SDS011;18306;40.960;14.836;2024-03-02T03:52:04;24.27;;;19.15;;
31724;SDS011;18306;40.960;14.836;2024-03-02T03:54:31;26.70;;;21.00;;
31724;SDS011;18306;40.960;14.836;2024-03-02T03:56:58;32.92;;;25.95;;
31724;SDS011;18306;40.960;14.836;2024-03-02T03:59:25;25.95;;;20.20;;
31724;SDS011;18306;40.960;14.836;2024-03-02T04:01:52;22.70;;;19.00;;
31724;SDS011;18306;40.960;14.836;2024-03-02T04:04:19;21.70;;;19.17;;
31724;SDS011;18306;40.960;14.836;2024-03-02T04:06:46;22.05;;;18.65;;
31724;SDS011;18306;40.960;14.836;2024-03-02T04:09:13;25.60;;;18.23;;
31724;SDS011;18306;40.960;14.836;2024-03-02T04:11:40;27.80;;;20.50;;
31724;SDS011;18306;40.960;14.836;2024-03-02T04:14:07;25.58;;;18.17;;
31724;SDS011;18306;40.960;14.836;2024-03-02T04:16:34;25.25;;;20.50;;
31724;SDS011;18306;40.960;14.836;2024-03-02T04:19:01;24.60;;;19.10;;
31724;SDS011;18306;40.960;14.836;2024-03-02T04:21:30;27.67;;;18.38;;
31724;SDS011;18306;40.960;14.836;2024-03-02T04:23:57;22.13;;;16.88;;
31724;SDS011;18306;40.960;14.836;2024-03-02T04:26:25;30.92;;;21.23;;
31724;SDS011;18306;40.960;14.836;2024-03-02T04:28:52;26.00;;;19.30;;
31724;SDS011;18306;40.960;14.836;2024-03-02T04:31:20;29.05;;;20.77;;
31724;SDS011;18306;40.960;14.836;2024-03-02T04:33:47;25.95;;;21.98;;
31724;SDS011;18306;40.960;14.836;2024-03-02T04:36:14;27.83;;;20.58;;
31724;SDS011;18306;40.960;14.836;2024-03-02T04:38:41;25.77;;;20.80;;
31724;SDS011;18306;40.960;14.836;2024-03-02T04:41:08;26.73;;;21.63;;
31724;SDS011;18306;40.960;14.836;2024-03-02T04:43:35;33.63;;;25.13;;
31724;SDS011;18306;40.960;14.836;2024-03-02T04:46:02;25.08;;;21.58;;
31724;SDS011;18306;40.960;14.836;2024-03-02T04:48:29;26.70;;;22.33;;
31724;SDS011;18306;40.960;14.836;2024-03-02T04:50:57;28.02;;;22.77;;
31724;SDS011;18306;40.960;14.836;2024-03-02T04:53:24;28.05;;;21.60;;
31724;SDS011;18306;40.960;14.836;2024-03-02T04:55:51;24.63;;;21.58;;
31724;SDS011;18306;40.960;14.836;2024-03-02T04:58:44;26.27;;;22.52;;
31724;SDS011;18306;40.960;14.836;2024-03-02T05:01:11;25.88;;;19.77;;
31724;SDS011;18306;40.960;14.836;2024-03-02T05:03:39;27.80;;;22.55;;
31724;SDS011;18306;40.960;14.836;2024-03-02T05:10:48;28.77;;;19.00;;
31724;SDS011;18306;40.960;14.836;2024-03-02T05:13:15;20.10;;;17.25;;
31724;SDS011;18306;40.960;14.836;2024-03-02T05:15:43;24.95;;;18.15;;
31724;SDS011;18306;40.960;14.836;2024-03-02T05:18:11;29.48;;;21.38;;
31724;SDS011;18306;40.960;14.836;2024-03-02T05:20:38;23.88;;;19.10;;
31724;SDS011;18306;40.960;14.836;2024-03-02T05:23:05;26.02;;;20.25;;
31724;SDS011;18306;40.960;14.836;2024-03-02T05:25:32;25.98;;;19.33;;
31724;SDS011;18306;40.960;14.836;2024-03-02T05:28:01;54.88;;;20.55;;
31724;SDS011;18306;40.960;14.836;2024-03-02T05:30:28;22.02;;;18.10;;
31724;SDS011;18306;40.960;14.836;2024-03-02T05:32:55;22.35;;;18.98;;
31724;SDS011;18306;40.960;14.836;2024-03-02T05:35:22;26.60;;;18.63;;
31724;SDS011;18306;40.960;14.836;2024-03-02T05:37:49;22.33;;;16.95;;
31724;SDS011;18306;40.960;14.836;2024-03-02T05:40:16;21.52;;;18.85;;
31724;SDS011;18306;40.960;14.836;2024-03-02T05:42:43;26.55;;;20.00;;
31724;SDS011;18306;40.960;14.836;2024-03-02T05:45:11;25.88;;;18.10;;
31724;SDS011;18306;40.960;14.836;2024-03-02T05:47:38;22.60;;;18.25;;
31724;SDS011;18306;40.960;14.836;2024-03-02T05:50:05;23.50;;;17.13;;
31724;SDS011;18306;40.960;14.836;2024-03-02T05:52:33;22.95;;;18.45;;
31724;SDS011;18306;40.960;14.836;2024-03-02T05:55:00;24.15;;;19.40;;
31724;SDS011;18306;40.960;14.836;2024-03-02T05:57:27;26.23;;;18.63;;
31724;SDS011;18306;40.960;14.836;2024-03-02T06:00:15;48.08;;;33.80;;
31724;SDS011;18306;40.960;14.836;2024-03-02T06:02:43;46.13;;;33.95;;
31724;SDS011;18306;40.960;14.836;2024-03-02T06:05:11;45.72;;;30.60;;
31724;SDS011;18306;40.960;14.836;2024-03-02T06:07:38;34.28;;;24.35;;
31724;SDS011;18306;40.960;14.836;2024-03-02T06:10:05;36.85;;;26.20;;
31724;SDS011;18306;40.960;14.836;2024-03-02T06:12:34;43.80;;;35.00;;
31724;SDS011;18306;40.960;14.836;2024-03-02T06:15:02;37.20;;;26.83;;
31724;SDS011;18306;40.960;14.836;2024-03-02T06:17:30;28.98;;;22.63;;
31724;SDS011;18306;40.960;14.836;2024-03-02T06:19:57;30.30;;;24.27;;
31724;SDS011;18306;40.960;14.836;2024-03-02T06:28:28;29.15;;;19.35;;
31724;SDS011;18306;40.960;14.836;2024-03-02T06:30:55;25.38;;;18.95;;
31724;SDS011;18306;40.960;14.836;2024-03-02T06:33:22;23.27;;;20.23;;
31724;SDS011;18306;40.960;14.836;2024-03-02T06:35:49;27.33;;;20.25;;
31724;SDS011;18306;40.960;14.836;2024-03-02T06:38:16;24.35;;;19.45;;
31724;SDS011;18306;40.960;14.836;2024-03-02T06:40:43;28.92;;;21.35;;
31724;SDS011;18306;40.960;14.836;2024-03-02T06:43:10;30.13;;;21.02;;
31724;SDS011;18306;40.960;14.836;2024-03-02T06:53:20;27.65;;;21.50;;
31724;SDS011;18306;40.960;14.836;2024-03-02T06:55:48;29.02;;;19.88;;
31724;SDS011;18306;40.960;14.836;2024-03-02T06:58:15;29.13;;;22.42;;
31724;SDS011;18306;40.960;14.836;2024-03-02T07:00:42;27.30;;;20.85;;
31724;SDS011;18306;40.960;14.836;2024-03-02T07:03:14;29.90;;;22.90;;
31724;SDS011;18306;40.960;14.836;2024-03-02T07:05:41;29.80;;;22.02;;
31724;SDS011;18306;40.960;14.836;2024-03-02T07:08:09;30.98;;;23.58;;
31724;SDS011;18306;40.960;14.836;2024-03-02T07:10:39;25.60;;;21.15;;
31724;SDS011;18306;40.960;14.836;2024-03-02T07:13:07;44.50;;;22.35;;
31724;SDS011;18306;40.960;14.836;2024-03-02T07:15:37;28.80;;;22.75;;
31724;SDS011;18306;40.960;14.836;2024-03-02T07:18:22;26.25;;;22.45;;
31724;SDS011;18306;40.960;14.836;2024-03-02T07:20:51;35.40;;;23.88;;
31724;SDS011;18306;40.960;14.836;2024-03-02T07:23:18;29.83;;;21.80;;
31724;SDS011;18306;40.960;14.836;2024-03-02T07:25:48;30.98;;;21.83;;
31724;SDS011;18306;40.960;14.836;2024-03-02T07:28:15;26.63;;;22.02;;
31724;SDS011;18306;40.960;14.836;2024-03-02T07:30:42;29.92;;;24.42;;
31724;SDS011;18306;40.960;14.836;2024-03-02T07:33:26;30.27;;;24.35;;
31724;SDS011;18306;40.960;14.836;2024-03-02T07:35:56;36.28;;;24.25;;
31724;SDS011;18306;40.960;14.836;2024-03-02T07:38:26;29.90;;;26.05;;
31724;SDS011;18306;40.960;14.836;2024-03-02T07:40:54;31.23;;;24.02;;
31724;SDS011;18306;40.960;14.836;2024-03-02T07:43:21;28.75;;;23.25;;
31724;SDS011;18306;40.960;14.836;2024-03-02T07:45:49;29.83;;;24.55;;
31724;SDS011;18306;40.960;14.836;2024-03-02T07:48:19;30.60;;;24.88;;
31724;SDS011;18306;40.960;14.836;2024-03-02T07:50:52;30.15;;;23.58;;
31724;SDS011;18306;40.960;14.836;2024-03-02T07:53:19;25.33;;;21.45;;
31724;SDS011;18306;40.960;14.836;2024-03-02T07:55:46;32.65;;;25.85;;
31724;SDS011;18306;40.960;14.836;2024-03-02T07:58:14;40.25;;;28.63;;
31724;SDS011;18306;40.960;14.836;2024-03-02T08:00:41;30.95;;;23.20;;
31724;SDS011;18306;40.960;14.836;2024-03-02T08:03:08;30.23;;;23.13;;
31724;SDS011;18306;40.960;14.836;2024-03-02T08:05:37;408.98;;;205.60;;
31724;SDS011;18306;40.960;14.836;2024-03-02T08:08:05;148.15;;;80.40;;
31724;SDS011;18306;40.960;14.836;2024-03-02T08:10:32;452.80;;;266.63;;
31724;SDS011;18306;40.960;14.836;2024-03-02T08:12:59;311.55;;;162.55;;
31724;SDS011;18306;40.960;14.836;2024-03-02T08:15:26;357.92;;;179.48;;
31724;SDS011;18306;40.960;14.836;2024-03-02T08:17:53;80.65;;;52.10;;
31724;SDS011;18306;40.960;14.836;2024-03-02T08:20:21;154.20;;;88.43;;
31724;SDS011;18306;40.960;14.836;2024-03-02T08:22:48;83.97;;;46.60;;
31724;SDS011;18306;40.960;14.836;2024-03-02T08:25:15;55.58;;;35.30;;
31724;SDS011;18306;40.960;14.836;2024-03-02T08:27:42;48.25;;;31.58;;
31724;SDS011;18306;40.960;14.836;2024-03-02T08:30:11;112.68;;;69.50;;
31724;SDS011;18306;40.960;14.836;2024-03-02T08:32:38;57.05;;;33.17;;
31724;SDS011;18306;40.960;14.836;2024-03-02T08:35:06;34.67;;;23.10;;
31724;SDS011;18306;40.960;14.836;2024-03-02T08:37:33;28.33;;;19.23;;
31724;SDS011;18306;40.960;14.836;2024-03-02T08:40:01;65.03;;;38.22;;
31724;SDS011;18306;40.960;14.836;2024-03-02T08:42:30;25.42;;;15.20;;
31724;SDS011;18306;40.960;14.836;2024-03-02T08:44:57;18.95;;;12.05;;
31724;SDS011;18306;40.960;14.836;2024-03-02T08:47:24;17.48;;;8.30;;
31724;SDS011;18306;40.960;14.836;2024-03-02T08:49:51;11.77;;;7.43;;
31724;SDS011;18306;40.960;14.836;2024-03-02T08:52:19;19.67;;;12.98;;
31724;SDS011;18306;40.960;14.836;2024-03-02T08:54:48;14.20;;;7.78;;
31724;SDS011;18306;40.960;14.836;2024-03-02T08:57:17;26.55;;;21.50;;
31724;SDS011;18306;40.960;14.836;2024-03-02T08:59:44;13.60;;;10.50;;
31724;SDS011;18306;40.960;14.836;2024-03-02T09:02:11;10.20;;;6.63;;
31724;SDS011;18306;40.960;14.836;2024-03-02T09:04:38;15.15;;;11.27;;
31724;SDS011;18306;40.960;14.836;2024-03-02T09:07:08;14.63;;;11.35;;
31724;SDS011;18306;40.960;14.836;2024-03-02T09:09:35;6.00;;;4.03;;
31724;SDS011;18306;40.960;14.836;2024-03-02T09:12:05;6.50;;;3.70;;
31724;SDS011;18306;40.960;14.836;2024-03-02T09:14:34;7.13;;;3.13;;
31724;SDS011;18306;40.960;14.836;2024-03-02T09:17:04;8.75;;;3.70;;
31724;SDS011;18306;40.960;14.836;2024-03-02T09:19:31;7.50;;;3.40;;
31724;SDS011;18306;40.960;14.836;2024-03-02T09:21:58;6.65;;;3.60;;
31724;SDS011;18306;40.960;14.836;2024-03-02T09:24:28;9.50;;;3.22;;
31724;SDS011;18306;40.960;14.836;2024-03-02T09:26:55;6.50;;;2.80;;
31724;SDS011;18306;40.960;14.836;2024-03-02T09:29:22;8.60;;;3.95;;
31724;SDS011;18306;40.960;14.836;2024-03-02T09:31:49;8.50;;;3.03;;
31724;SDS011;18306;40.960;14.836;2024-03-02T09:34:17;7.10;;;3.25;;
31724;SDS011;18306;40.960;14.836;2024-03-02T09:36:44;8.13;;;3.30;;
31724;SDS011;18306;40.960;14.836;2024-03-02T09:39:11;4.90;;;3.20;;
31724;SDS011;18306;40.960;14.836;2024-03-02T09:41:38;6.28;;;2.88;;
31724;SDS011;18306;40.960;14.836;2024-03-02T09:44:05;12.95;;;5.15;;
31724;SDS011;18306;40.960;14.836;2024-03-02T09:46:32;7.18;;;4.30;;
31724;SDS011;18306;40.960;14.836;2024-03-02T09:49:00;8.18;;;3.70;;
31724;SDS011;18306;40.960;14.836;2024-03-02T09:51:27;8.40;;;3.47;;
31724;SDS011;18306;40.960;14.836;2024-03-02T09:53:55;6.57;;;3.00;;
31724;SDS011;18306;40.960;14.836;2024-03-02T09:56:22;14.60;;;4.57;;
31724;SDS011;18306;40.960;14.836;2024-03-02T09:58:50;11.52;;;7.57;;
31724;SDS011;18306;40.960;14.836;2024-03-02T10:01:18;9.73;;;3.38;;
31724;SDS011;18306;40.960;14.836;2024-03-02T10:03:45;8.52;;;3.83;;
31724;SDS011;18306;40.960;14.836;2024-03-02T10:06:23;4.20;;;2.95;;
31724;SDS011;18306;40.960;14.836;2024-03-02T10:08:54;8.93;;;3.80;;
31724;SDS011;18306;40.960;14.836;2024-03-02T10:11:30;7.53;;;3.97;;
31724;SDS011;18306;40.960;14.836;2024-03-02T10:14:12;7.10;;;4.43;;
31724;SDS011;18306;40.960;14.836;2024-03-02T10:16:44;10.95;;;5.63;;
31724;SDS011;18306;40.960;14.836;2024-03-02T10:19:21;9.90;;;5.35;;
31724;SDS011;18306;40.960;14.836;2024-03-02T10:21:52;7.65;;;4.95;;
31724;SDS011;18306;40.960;14.836;2024-03-02T10:24:21;8.23;;;5.20;;
31724;SDS011;18306;40.960;14.836;2024-03-02T10:26:49;9.65;;;5.95;;
31724;SDS011;18306;40.960;14.836;2024-03-02T10:29:17;8.73;;;5.43;;
31724;SDS011;18306;40.960;14.836;2024-03-02T10:31:45;16.40;;;5.22;;
31724;SDS011;18306;40.960;14.836;2024-03-02T10:34:12;11.23;;;7.68;;
31724;SDS011;18306;40.960;14.836;2024-03-02T10:36:43;13.82;;;7.53;;
31724;SDS011;18306;40.960;14.836;2024-03-02T10:39:15;8.93;;;5.68;;
31724;SDS011;18306;40.960;14.836;2024-03-02T10:41:43;10.57;;;5.47;;
31724;SDS011;18306;40.960;14.836;2024-03-02T10:44:12;12.98;;;4.93;;
31724;SDS011;18306;40.960;14.836;2024-03-02T10:46:39;8.50;;;4.95;;
31724;SDS011;18306;40.960;14.836;2024-03-02T10:49:06;10.70;;;5.78;;
31724;SDS011;18306;40.960;14.836;2024-03-02T10:51:34;11.15;;;6.03;;
31724;SDS011;18306;40.960;14.836;2024-03-02T10:54:05;9.50;;;6.47;;
31724;SDS011;18306;40.960;14.836;2024-03-02T10:56:33;12.23;;;5.43;;
31724;SDS011;18306;40.960;14.836;2024-03-02T11:02:00;10.82;;;5.78;;
31724;SDS011;18306;40.960;14.836;2024-03-02T11:04:29;7.35;;;4.38;;
31724;SDS011;18306;40.960;14.836;2024-03-02T11:09:34;9.07;;;4.40;;
31724;SDS011;18306;40.960;14.836;2024-03-02T11:12:05;9.23;;;5.25;;
31724;SDS011;18306;40.960;14.836;2024-03-02T11:14:43;10.80;;;5.85;;
31724;SDS011;18306;40.960;14.836;2024-03-02T11:17:10;10.13;;;4.68;;
31724;SDS011;18306;40.960;14.836;2024-03-02T11:19:39;8.82;;;4.70;;
31724;SDS011;18306;40.960;14.836;2024-03-02T11:22:08;12.57;;;4.88;;
31724;SDS011;18306;40.960;14.836;2024-03-02T11:24:36;6.60;;;4.88;;
31724;SDS011;18306;40.960;14.836;2024-03-02T11:27:04;5.68;;;4.18;;
31724;SDS011;18306;40.960;14.836;2024-03-02T11:32:02;6.28;;;3.53;;
31724;SDS011;18306;40.960;14.836;2024-03-02T11:34:31;7.28;;;3.90;;
31724;SDS011;18306;40.960;14.836;2024-03-02T11:37:02;5.13;;;3.63;;
31724;SDS011;18306;40.960;14.836;2024-03-02T11:39:30;6.72;;;3.20;;
31724;SDS011;18306;40.960;14.836;2024-03-02T11:41:57;4.80;;;2.85;;
31724;SDS011;18306;40.960;14.836;2024-03-02T11:44:25;3.38;;;2.72;;
31724;SDS011;18306;40.960;14.836;2024-03-02T11:46:58;7.47;;;3.03;;
31724;SDS011;18306;40.960;14.836;2024-03-02T11:52:06;4.13;;;2.80;;
31724;SDS011;18306;40.960;14.836;2024-03-02T11:54:39;4.05;;;2.78;;
31724;SDS011;18306;40.960;14.836;2024-03-02T11:57:13;5.10;;;3.10;;
31724;SDS011;18306;40.960;14.836;2024-03-02T11:59:42;7.03;;;3.50;;
31724;SDS011;18306;40.960;14.836;2024-03-02T12:02:16;7.28;;;3.90;;
31724;SDS011;18306;40.960;14.836;2024-03-02T12:04:45;7.90;;;3.60;;
31724;SDS011;18306;40.960;14.836;2024-03-02T12:07:20;6.22;;;3.30;;
31724;SDS011;18306;40.960;14.836;2024-03-02T12:09:49;7.30;;;4.05;;
31724;SDS011;18306;40.960;14.836;2024-03-02T12:12:27;6.65;;;3.28;;
31724;SDS011;18306;40.960;14.836;2024-03-02T12:14:54;9.60;;;4.18;;
31724;SDS011;18306;40.960;14.836;2024-03-02T12:17:22;7.20;;;3.97;;
31724;SDS011;18306;40.960;14.836;2024-03-02T12:19:49;7.25;;;3.13;;
31724;SDS011;18306;40.960;14.836;2024-03-02T12:22:16;7.40;;;4.47;;
31724;SDS011;18306;40.960;14.836;2024-03-02T12:24:43;9.40;;;5.00;;
31724;SDS011;18306;40.960;14.836;2024-03-02T12:27:14;12.15;;;5.80;;
31724;SDS011;18306;40.960;14.836;2024-03-02T12:29:42;9.02;;;5.57;;
31724;SDS011;18306;40.960;14.836;2024-03-02T12:32:09;13.65;;;6.18;;
31724;SDS011;18306;40.960;14.836;2024-03-02T12:34:41;12.35;;;5.03;;
31724;SDS011;18306;40.960;14.836;2024-03-02T12:37:11;13.90;;;4.70;;
31724;SDS011;18306;40.960;14.836;2024-03-02T12:39:44;20.73;;;12.95;;
31724;SDS011;18306;40.960;14.836;2024-03-02T12:42:13;16.58;;;8.07;;
31724;SDS011;18306;40.960;14.836;2024-03-02T12:44:40;11.23;;;5.18;;
31724;SDS011;18306;40.960;14.836;2024-03-02T12:47:07;12.68;;;5.50;;
31724;SDS011;18306;40.960;14.836;2024-03-02T12:49:36;15.20;;;4.55;;
31724;SDS011;18306;40.960;14.836;2024-03-02T12:52:03;13.93;;;4.05;;
31724;SDS011;18306;40.960;14.836;2024-03-02T12:54:32;13.13;;;4.40;;
31724;SDS011;18306;40.960;14.836;2024-03-02T12:56:59;11.20;;;4.97;;
31724;SDS011;18306;40.960;14.836;2024-03-02T12:59:26;13.15;;;4.78;;
31724;SDS011;18306;40.960;14.836;2024-03-02T13:01:55;16.48;;;5.22;;
31724;SDS011;18306;40.960;14.836;2024-03-02T13:04:25;12.93;;;5.85;;
31724;SDS011;18306;40.960;14.836;2024-03-02T13:06:55;16.83;;;5.10;;
31724;SDS011;18306;40.960;14.836;2024-03-02T13:09:23;15.95;;;4.57;;
31724;SDS011;18306;40.960;14.836;2024-03-02T13:11:51;13.48;;;5.30;;
31724;SDS011;18306;40.960;14.836;2024-03-02T13:14:21;13.52;;;5.13;;
31724;SDS011;18306;40.960;14.836;2024-03-02T13:16:51;16.33;;;5.85;;
31724;SDS011;18306;40.960;14.836;2024-03-02T13:19:23;17.92;;;5.55;;
31724;SDS011;18306;40.960;14.836;2024-03-02T13:21:50;17.98;;;6.00;;
31724;SDS011;18306;40.960;14.836;2024-03-02T13:24:17;17.40;;;5.07;;
31724;SDS011;18306;40.960;14.836;2024-03-02T13:26:46;12.98;;;5.68;;
31724;SDS011;18306;40.960;14.836;2024-03-02T13:29:13;19.63;;;5.70;;
31724;SDS011;18306;40.960;14.836;2024-03-02T13:31:40;20.70;;;5.97;;
31724;SDS011;18306;40.960;14.836;2024-03-02T13:34:07;11.35;;;4.47;;
31724;SDS011;18306;40.960;14.836;2024-03-02T13:36:35;16.35;;;4.93;;
31724;SDS011;18306;40.960;14.836;2024-03-02T13:39:02;16.60;;;5.60;;
31724;SDS011;18306;40.960;14.836;2024-03-02T13:41:32;14.20;;;5.30;;
31724;SDS011;18306;40.960;14.836;2024-03-02T13:43:59;12.75;;;4.88;;
31724;SDS011;18306;40.960;14.836;2024-03-02T13:46:27;12.45;;;4.78;;
31724;SDS011;18306;40.960;14.836;2024-03-02T13:51:49;16.37;;;6.00;;
31724;SDS011;18306;40.960;14.836;2024-03-02T13:54:16;14.05;;;4.93;;
31724;SDS011;18306;40.960;14.836;2024-03-02T13:56:50;10.73;;;5.38;;
31724;SDS011;18306;40.960;14.836;2024-03-02T13:59:17;17.63;;;5.72;;
31724;SDS011;18306;40.960;14.836;2024-03-02T14:01:44;18.70;;;5.43;;
31724;SDS011;18306;40.960;14.836;2024-03-02T14:04:11;19.73;;;6.32;;
31724;SDS011;18306;40.960;14.836;2024-03-02T14:06:38;17.30;;;6.40;;
31724;SDS011;18306;40.960;14.836;2024-03-02T14:09:06;16.55;;;6.28;;
31724;SDS011;18306;40.960;14.836;2024-03-02T14:11:32;21.38;;;7.65;;
31724;SDS011;18306;40.960;14.836;2024-03-02T14:13:59;18.48;;;6.50;;
31724;SDS011;18306;40.960;14.836;2024-03-02T14:16:27;19.02;;;7.75;;
31724;SDS011;18306;40.960;14.836;2024-03-02T14:18:54;14.70;;;6.50;;
31724;SDS011;18306;40.960;14.836;2024-03-02T14:21:22;16.58;;;5.72;;
31724;SDS011;18306;40.960;14.836;2024-03-02T14:23:49;20.88;;;5.70;;
31724;SDS011;18306;40.960;14.836;2024-03-02T14:26:19;14.88;;;5.20;;
31724;SDS011;18306;40.960;14.836;2024-03-02T14:28:46;15.52;;;5.30;;
31724;SDS011;18306;40.960;14.836;2024-03-02T14:31:13;17.25;;;6.13;;
31724;SDS011;18306;40.960;14.836;2024-03-02T14:33:40;21.88;;;11.85;;
31724;SDS011;18306;40.960;14.836;2024-03-02T14:36:08;24.30;;;10.02;;
31724;SDS011;18306;40.960;14.836;2024-03-02T14:38:35;24.23;;;12.52;;
31724;SDS011;18306;40.960;14.836;2024-03-02T14:41:03;33.83;;;19.60;;
31724;SDS011;18306;40.960;14.836;2024-03-02T14:43:31;25.75;;;11.82;;
31724;SDS011;18306;40.960;14.836;2024-03-02T14:45:58;33.42;;;15.85;;
31724;SDS011;18306;40.960;14.836;2024-03-02T14:48:25;22.58;;;8.63;;
31724;SDS011;18306;40.960;14.836;2024-03-02T14:50:52;42.75;;;24.10;;
31724;SDS011;18306;40.960;14.836;2024-03-02T14:53:19;36.85;;;19.27;;
31724;SDS011;18306;40.960;14.836;2024-03-02T14:55:46;35.30;;;16.85;;
31724;SDS011;18306;40.960;14.836;2024-03-02T14:58:13;29.55;;;11.23;;